^^
Datos históricos de la estación: Murcia-Puente Tocinos
Diario Informe para Febrero 18, 2019 Unidades:  Métrico    Inglés   Ambas
Diario Semanal Mensual Anual Configurable
  Máximo: Mínimo: Media:
Temperatura: 16.3 °C 9.6 °C 12.1 °C
Punto de rocio: 9.7 °C 6.3 °C 8.3 °C
Humedad: 90% 60% 79%
Velocidad viento: 16.4km/h 0.0km/h 6.7km/h
Racha viento: 27.4km/h - -
Viento- - SSE
Presión: 1022.3 hPa 1017.4 hPa -
Precipitación: 0.0 mm    
Historical Graphs
 
 
Tabla de datos para Febrero 18, 2019
Hora Temperatura Punto de rocio Presión Viento Velocidad viento Racha viento Humedad Intensidad lluvia(por hora) Nubes
00:05 10.9 °C 9.3 °C 1022.3 hPa West 3.2 km/h 4.8 km/h 90% 0.0 mm CLR
00:10 10.9 °C 9.2 °C 1022.3 hPa Calm     89% 0.0 mm CLR
00:15 10.9 °C 9.2 °C 1022.3 hPa Calm     89% 0.0 mm CLR
00:19 11.0 °C 9.3 °C 1022.1 hPa Calm     89% 0.0 mm CLR
00:25 11.1 °C 9.3 °C 1022.1 hPa Calm     89% 0.0 mm CLR
00:29 11.1 °C 9.3 °C 1022.1 hPa Calm     89% 0.0 mm CLR
00:34 11.1 °C 9.2 °C 1022.2 hPa Calm     88% 0.0 mm CLR
00:39 10.9 °C 9.0 °C 1022.2 hPa Calm   4.7 km/h 88% 0.0 mm CLR
00:44 10.9 °C 8.8 °C 1022.2 hPa Calm   3.9 km/h 87% 0.0 mm CLR
00:49 10.9 °C 8.8 °C 1022.2 hPa West 2.9 km/h 5.6 km/h 87% 0.0 mm CLR
00:54 10.8 °C 8.7 °C 1022.2 hPa West 2.9 km/h 7.4 km/h 87% 0.0 mm CLR
00:59 10.8 °C 8.6 °C 1022.2 hPa West 5.0 km/h 5.6 km/h 86% 0.0 mm CLR
01:05 10.7 °C 8.4 °C 1022.1 hPa WSW 4.8 km/h 9.7 km/h 86% 0.0 mm CLR
01:09 10.7 °C 8.4 °C 1022.1 hPa SSE 5.0 km/h 7.4 km/h 86% 0.0 mm CLR
01:14 10.7 °C 8.4 °C 1022.1 hPa South 5.0 km/h 9.3 km/h 86% 0.0 mm CLR
01:20 10.7 °C 8.4 °C 1022.0 hPa South 5.8 km/h 7.4 km/h 86% 0.0 mm CLR
01:24 10.7 °C 8.4 °C 1022.0 hPa South 5.8 km/h 9.3 km/h 86% 0.0 mm CLR
01:30 10.7 °C 8.4 °C 1022.0 hPa South 4.7 km/h 5.6 km/h 86% 0.0 mm CLR
01:35 10.7 °C 8.4 °C 1022.0 hPa South 4.7 km/h 5.8 km/h 86% 0.0 mm CLR
01:39 10.7 °C 8.4 °C 1022.0 hPa South 4.7 km/h 5.6 km/h 86% 0.0 mm CLR
01:44 10.7 °C 8.4 °C 1022.0 hPa South 4.7 km/h 3.7 km/h 86% 0.0 mm CLR
01:49 10.7 °C 8.4 °C 1021.8 hPa South 2.9 km/h 5.6 km/h 86% 0.0 mm CLR
01:55 10.7 °C 8.4 °C 1021.8 hPa SSE 2.9 km/h 7.4 km/h 86% 0.0 mm CLR
01:59 10.7 °C 8.4 °C 1021.8 hPa SSE 4.7 km/h 3.7 km/h 86% 0.0 mm CLR
02:04 10.6 °C 8.3 °C 1021.6 hPa SSE 4.7 km/h   86% 0.0 mm CLR
02:09 10.6 °C 8.3 °C 1021.6 hPa SSE 2.3 km/h 5.8 km/h 86% 0.0 mm CLR
02:14 10.5 °C 8.3 °C 1021.6 hPa SSE 2.3 km/h 5.0 km/h 86% 0.0 mm CLR
02:20 10.5 °C 8.4 °C 1021.5 hPa SSE 3.2 km/h 8.0 km/h 87% 0.0 mm CLR
02:25 10.4 °C 8.3 °C 1021.5 hPa SSE 3.2 km/h 6.4 km/h 87% 0.0 mm CLR
02:30 10.5 °C 8.4 °C 1021.5 hPa SSE 3.9 km/h 3.7 km/h 87% 0.0 mm CLR
02:35 10.4 °C 8.3 °C 1021.3 hPa SSE 3.2 km/h 3.2 km/h 87% 0.0 mm CLR
02:39 10.5 °C 8.4 °C 1021.3 hPa South 2.3 km/h 5.6 km/h 87% 0.0 mm CLR
02:44 10.5 °C 8.4 °C 1021.3 hPa South 2.3 km/h 5.0 km/h 87% 0.0 mm CLR
02:50 10.4 °C 8.3 °C 1021.5 hPa SSE 3.2 km/h 8.0 km/h 87% 0.0 mm CLR
02:54 10.3 °C 8.2 °C 1021.5 hPa SSW 2.9 km/h 7.4 km/h 87% 0.0 mm CLR
02:59 10.3 °C 8.2 °C 1021.5 hPa SSW 3.9 km/h 5.6 km/h 87% 0.0 mm CLR
03:05 10.3 °C 8.2 °C 1021.4 hPa SSW 3.9 km/h 7.4 km/h 87% 0.0 mm CLR
03:10 10.3 °C 8.2 °C 1021.4 hPa West 3.2 km/h 7.4 km/h 87% 0.0 mm CLR
03:15 10.2 °C 8.3 °C 1021.4 hPa West 3.2 km/h 7.4 km/h 88% 0.0 mm CLR
03:19 10.2 °C 8.3 °C 1021.3 hPa West 5.0 km/h 3.7 km/h 88% 0.0 mm CLR
03:25 10.2 °C 8.3 °C 1021.3 hPa West 4.8 km/h 8.0 km/h 88% 0.0 mm CLR
03:29 10.3 °C 8.4 °C 1021.3 hPa West 2.3 km/h   88% 0.0 mm CLR
03:35 10.4 °C 8.5 °C 1021.2 hPa SSE 2.3 km/h 3.9 km/h 88% 0.0 mm CLR
03:39 10.3 °C 8.2 °C 1021.2 hPa ESE 2.9 km/h 7.4 km/h 87% 0.0 mm CLR
03:45 10.3 °C 8.2 °C 1021.2 hPa ESE 3.2 km/h 8.0 km/h 87% 0.0 mm CLR
03:49 10.2 °C 8.1 °C 1021.0 hPa ESE 4.7 km/h 5.6 km/h 87% 0.0 mm CLR
03:55 10.2 °C 8.1 °C 1021.0 hPa ESE 4.7 km/h 7.4 km/h 87% 0.0 mm CLR
04:00 10.2 °C 8.1 °C 1021.0 hPa ESE 3.2 km/h 8.0 km/h 87% 0.0 mm CLR
04:05 10.1 °C 8.1 °C 1020.8 hPa South 4.7 km/h 7.4 km/h 87% 0.0 mm CLR
04:09 10.1 °C 8.1 °C 1020.8 hPa South 4.7 km/h 7.4 km/h 87% 0.0 mm CLR
04:15 10.0 °C 7.9 °C 1020.8 hPa South 3.2 km/h 8.0 km/h 87% 0.0 mm CLR
04:19 10.0 °C 7.9 °C 1020.6 hPa South 5.0 km/h 7.6 km/h 87% 0.0 mm CLR
04:25 10.0 °C 7.9 °C 1020.6 hPa South 4.8 km/h 8.0 km/h 87% 0.0 mm CLR
04:29 10.0 °C 7.9 °C 1020.6 hPa South 3.9 km/h 7.4 km/h 87% 0.0 mm CLR
04:34 10.0 °C 7.9 °C 1020.4 hPa South 3.9 km/h 5.8 km/h 87% 0.0 mm CLR
04:39 10.0 °C 7.9 °C 1020.4 hPa South 4.7 km/h 6.4 km/h 87% 0.0 mm CLR
04:45 10.0 °C 7.9 °C 1020.4 hPa South 3.2 km/h 8.0 km/h 87% 0.0 mm CLR
04:49 10.1 °C 8.1 °C 1020.3 hPa South 4.7 km/h 5.6 km/h 87% 0.0 mm CLR
04:55 10.1 °C 8.1 °C 1020.3 hPa South 3.2 km/h 4.8 km/h 87% 0.0 mm CLR
04:59 10.2 °C 8.1 °C 1020.3 hPa South 2.3 km/h 5.6 km/h 87% 0.0 mm CLR
05:05 10.2 °C 8.1 °C 1020.2 hPa South 2.3 km/h   87% 0.0 mm CLR
05:09 10.2 °C 8.1 °C 1020.2 hPa South 2.3 km/h 3.7 km/h 87% 0.0 mm CLR
05:15 10.2 °C 7.9 °C 1020.2 hPa South 1.6 km/h 8.0 km/h 86% 0.0 mm CLR
05:20 10.2 °C 7.9 °C 1020.2 hPa South 3.9 km/h 7.4 km/h 86% 0.0 mm CLR
05:25 10.2 °C 7.9 °C 1020.2 hPa SW 3.9 km/h 7.4 km/h 86% 0.0 mm CLR
05:29 10.3 °C 8.1 °C 1020.2 hPa WSW 3.9 km/h 7.4 km/h 86% 0.0 mm CLR
05:34 10.3 °C 8.1 °C 1020.2 hPa WSW 3.9 km/h 7.4 km/h 86% 0.0 mm CLR
05:39 10.3 °C 8.1 °C 1020.2 hPa WSW 3.9 km/h 5.6 km/h 86% 0.0 mm CLR
05:45 10.3 °C 8.1 °C 1020.2 hPa WSW 3.2 km/h 8.0 km/h 86% 0.0 mm CLR
05:50 10.3 °C 8.1 °C 1020.2 hPa WSW 3.2 km/h 8.0 km/h 86% 0.0 mm CLR
05:54 10.3 °C 8.1 °C 1020.2 hPa WSW 3.9 km/h 6.9 km/h 86% 0.0 mm CLR
06:00 10.4 °C 7.9 °C 1020.2 hPa WSW 3.2 km/h 8.0 km/h 85% 0.0 mm CLR
06:05 10.4 °C 8.0 °C 1020.2 hPa WSW 3.2 km/h 6.4 km/h 85% 0.0 mm CLR
06:10 10.4 °C 8.0 °C 1020.2 hPa SW 3.2 km/h 7.4 km/h 85% 0.0 mm CLR
06:15 10.3 °C 7.7 °C 1020.2 hPa SW 3.2 km/h 7.4 km/h 84% 0.0 mm CLR
06:19 10.3 °C 7.7 °C 1020.1 hPa East 4.7 km/h 7.4 km/h 84% 0.0 mm CLR
06:25 10.1 °C 7.5 °C 1020.1 hPa SE 4.7 km/h 9.3 km/h 84% 0.0 mm CLR
06:30 10.0 °C 7.6 °C 1020.1 hPa ESE 5.8 km/h 7.4 km/h 85% 0.0 mm CLR
06:35 9.9 °C 7.5 °C 1020.1 hPa SE 4.8 km/h 11.3 km/h 85% 0.0 mm CLR
06:40 9.8 °C 7.4 °C 1020.1 hPa SSE 6.4 km/h 11.1 km/h 85% 0.0 mm CLR
06:45 9.7 °C 7.3 °C 1020.1 hPa SSW 8.0 km/h 11.3 km/h 85% 0.0 mm CLR
06:49 9.7 °C 7.3 °C 1020.2 hPa SW 6.9 km/h 6.4 km/h 85% 0.0 mm CLR
06:55 9.7 °C 7.3 °C 1020.2 hPa SW 8.0 km/h 8.0 km/h 85% 0.0 mm CLR
07:00 9.7 °C 7.3 °C 1020.2 hPa SW 3.2 km/h 8.0 km/h 85% 0.0 mm CLR
07:05 9.8 °C 7.4 °C 1020.0 hPa SW 3.2 km/h 9.7 km/h 85% 0.0 mm CLR
07:10 9.8 °C 7.2 °C 1020.0 hPa SW 5.0 km/h 7.4 km/h 84% 0.0 mm CLR
07:15 9.8 °C 7.2 °C 1020.0 hPa SSE 5.0 km/h 8.4 km/h 84% 0.0 mm CLR
07:19 9.7 °C 6.9 °C 1020.1 hPa South 6.4 km/h 11.1 km/h 83% 0.0 mm CLR
07:25 9.7 °C 7.1 °C 1020.1 hPa South 8.0 km/h 9.7 km/h 84% 0.0 mm CLR
07:29 9.7 °C 7.1 °C 1020.1 hPa SSE 6.9 km/h 7.4 km/h 84% 0.0 mm CLR
07:35 9.7 °C 6.9 °C 1020.1 hPa South 8.0 km/h 9.7 km/h 83% 0.0 mm CLR
07:40 9.7 °C 6.9 °C 1020.1 hPa South 4.8 km/h 9.7 km/h 83% 0.0 mm CLR
07:45 9.7 °C 6.9 °C 1020.1 hPa SSW 4.8 km/h 9.7 km/h 83% 0.0 mm CLR
07:50 9.7 °C 6.9 °C 1020.0 hPa South 5.8 km/h 11.1 km/h 83% 0.0 mm CLR
07:55 9.7 °C 6.8 °C 1020.0 hPa South 5.8 km/h 13.0 km/h 82% 0.0 mm CLR
08:00 9.7 °C 6.8 °C 1020.0 hPa South 8.0 km/h 14.5 km/h 82% 0.0 mm CLR
08:05 9.7 °C 6.8 °C 1020.2 hPa SSW 8.4 km/h 11.1 km/h 82% 0.0 mm CLR
08:10 9.7 °C 6.8 °C 1020.2 hPa SW 8.4 km/h 11.1 km/h 82% 0.0 mm CLR
08:15 9.7 °C 6.8 °C 1020.2 hPa SSW 8.0 km/h 11.3 km/h 82% 0.0 mm CLR
08:20 9.7 °C 6.6 °C 1020.3 hPa SSW 8.0 km/h 12.9 km/h 81% 0.0 mm CLR
08:25 9.8 °C 6.7 °C 1020.3 hPa SSW 8.0 km/h 11.3 km/h 81% 0.0 mm CLR
08:30 9.8 °C 6.7 °C 1020.3 hPa South 7.6 km/h 11.1 km/h 81% 0.0 mm CLR
08:35 9.8 °C 6.7 °C 1020.5 hPa SSE 7.6 km/h 11.1 km/h 81% 0.0 mm CLR
08:40 9.8 °C 6.5 °C 1020.5 hPa South 8.0 km/h 12.9 km/h 80% 0.0 mm CLR
08:45 9.7 °C 6.4 °C 1020.5 hPa SSW 6.9 km/h 11.1 km/h 80% 0.0 mm CLR
08:50 9.6 °C 6.3 °C 1020.6 hPa SSW 8.0 km/h 12.9 km/h 80% 0.0 mm CLR
08:55 9.7 °C 6.4 °C 1020.6 hPa SSW 8.0 km/h 12.9 km/h 80% 0.0 mm CLR
09:00 9.7 °C 6.4 °C 1020.6 hPa South 8.0 km/h 11.3 km/h 80% 0.0 mm CLR
09:05 9.8 °C 6.4 °C 1020.7 hPa South 8.0 km/h 14.5 km/h 80% 0.0 mm CLR
09:09 9.8 °C 6.3 °C 1020.7 hPa South 8.4 km/h 13.7 km/h 79% 0.0 mm CLR
09:15 9.8 °C 6.3 °C 1020.7 hPa South 8.4 km/h 13.0 km/h 79% 0.0 mm CLR
09:20 9.8 °C 6.3 °C 1020.7 hPa South 10.0 km/h 13.0 km/h 79% 0.0 mm CLR
09:25 9.8 °C 6.3 °C 1020.7 hPa South 9.7 km/h 14.5 km/h 79% 0.0 mm CLR
09:30 9.9 °C 6.4 °C 1020.7 hPa South 9.7 km/h 12.9 km/h 79% 0.0 mm CLR
09:35 10.0 °C 6.5 °C 1020.7 hPa SE 8.7 km/h 9.5 km/h 79% 0.0 mm CLR
09:39 10.2 °C 6.7 °C 1020.7 hPa SSW 6.9 km/h 10.3 km/h 79% 0.0 mm CLR
09:45 10.2 °C 6.6 °C 1020.7 hPa South 8.0 km/h 12.9 km/h 78% 0.0 mm CLR
09:50 10.3 °C 6.6 °C 1020.8 hPa SSE 8.4 km/h 9.5 km/h 78% 0.0 mm CLR
09:55 10.4 °C 6.7 °C 1020.8 hPa South 8.0 km/h 9.7 km/h 78% 0.0 mm CLR
10:00 10.4 °C 6.6 °C 1020.8 hPa South 8.0 km/h 11.3 km/h 77% 0.0 mm CLR
10:05 10.4 °C 6.6 °C 1020.8 hPa SSW 7.6 km/h 11.1 km/h 77% 0.0 mm CLR
10:09 10.6 °C 6.7 °C 1020.8 hPa South 8.4 km/h 11.1 km/h 77% 0.0 mm CLR
10:15 10.6 °C 6.7 °C 1020.8 hPa SSW 8.4 km/h 9.3 km/h 77% 0.0 mm CLR
10:19 10.6 °C 6.7 °C 1020.7 hPa SW 8.4 km/h 11.1 km/h 77% 0.0 mm CLR
10:25 10.7 °C 6.8 °C 1020.7 hPa SSW 8.0 km/h 14.5 km/h 77% 0.0 mm CLR
10:29 10.7 °C 6.8 °C 1020.7 hPa SSW 8.7 km/h 10.0 km/h 77% 0.0 mm CLR
10:35 10.8 °C 6.7 °C 1020.8 hPa SSW 9.7 km/h 14.5 km/h 76% 0.0 mm CLR
10:40 10.8 °C 6.7 °C 1020.8 hPa SSW 8.7 km/h 9.3 km/h 76% 0.0 mm CLR
10:45 10.9 °C 6.8 °C 1020.8 hPa SSW 9.7 km/h 11.3 km/h 76% 0.0 mm CLR
10:50 11.2 °C 6.9 °C 1020.6 hPa SSW 6.9 km/h 11.1 km/h 75% 0.0 mm CLR
10:55 11.3 °C 7.1 °C 1020.6 hPa SSW 8.0 km/h 9.7 km/h 75% 0.0 mm CLR
10:59 11.5 °C 7.0 °C 1020.6 hPa SSW 6.4 km/h 9.3 km/h 74% 0.0 mm CLR
11:05 11.6 °C 7.2 °C 1020.6 hPa SSW 8.0 km/h 11.3 km/h 74% 0.0 mm CLR
11:09 11.8 °C 7.1 °C 1020.6 hPa SSW 6.4 km/h 9.3 km/h 73% 0.0 mm CLR
11:15 11.8 °C 7.1 °C 1020.6 hPa South 8.0 km/h 11.3 km/h 73% 0.0 mm CLR
11:19 11.9 °C 7.2 °C 1020.7 hPa SSE 6.4 km/h 5.6 km/h 73% 0.0 mm CLR
11:25 12.1 °C 7.4 °C 1020.7 hPa SSE 6.4 km/h 7.4 km/h 73% 0.0 mm CLR
11:30 12.3 °C 7.6 °C 1020.7 hPa SSW 4.8 km/h 8.0 km/h 73% 0.0 mm CLR
11:35 12.3 °C 7.6 °C 1020.6 hPa West 5.0 km/h 3.9 km/h 73% 0.0 mm CLR
11:39 12.5 °C 7.8 °C 1020.6 hPa SSW 2.9 km/h 7.4 km/h 73% 0.0 mm CLR
11:45 12.8 °C 7.7 °C 1020.6 hPa South 2.9 km/h 11.1 km/h 71% 0.0 mm CLR
11:50 13.0 °C 7.9 °C 1020.6 hPa SSW 4.8 km/h 11.3 km/h 71% 0.0 mm CLR
11:55 13.2 °C 8.1 °C 1020.6 hPa SE 5.8 km/h 7.6 km/h 71% 0.0 mm CLR
12:00 13.4 °C 7.9 °C 1020.6 hPa SSE 4.8 km/h 11.3 km/h 69% 0.0 mm CLR
12:05 13.5 °C 8.1 °C 1020.5 hPa SE 4.8 km/h 11.3 km/h 70% 0.0 mm CLR
12:10 13.6 °C 8.4 °C 1020.5 hPa South 8.0 km/h 11.3 km/h 71% 0.0 mm CLR
12:15 13.7 °C 8.3 °C 1020.5 hPa SE 8.0 km/h 14.5 km/h 70% 0.0 mm CLR
12:20 13.7 °C 8.1 °C 1020.4 hPa SE 5.0 km/h 16.7 km/h 69% 0.0 mm CLR
12:25 13.6 °C 8.2 °C 1020.4 hPa SSE 5.0 km/h 13.0 km/h 70% 0.0 mm CLR
12:30 13.7 °C 8.3 °C 1020.4 hPa SE 9.7 km/h 12.9 km/h 70% 0.0 mm CLR
12:35 14.0 °C 8.6 °C 1020.2 hPa SE 9.7 km/h 9.7 km/h 70% 0.0 mm CLR
12:40 14.3 °C 8.7 °C 1020.2 hPa ENE 5.8 km/h   69% 0.0 mm CLR
12:45 14.6 °C 8.8 °C 1020.2 hPa ESE 5.8 km/h 9.3 km/h 68% 0.0 mm CLR
12:50 14.7 °C 8.8 °C 1019.9 hPa ESE 4.7 km/h 5.8 km/h 68% 0.0 mm CLR
12:55 14.8 °C 8.7 °C 1019.9 hPa NW 4.7 km/h 11.1 km/h 67% 0.0 mm CLR
13:00 14.7 °C 8.8 °C 1019.9 hPa NNE 4.8 km/h 19.3 km/h 68% 0.0 mm CLR
13:05 14.7 °C 8.8 °C 1019.7 hPa NW 5.8 km/h 9.3 km/h 68% 0.0 mm CLR
13:09 14.7 °C 8.8 °C 1019.7 hPa NNW 6.9 km/h 13.0 km/h 68% 0.0 mm CLR
13:15 14.7 °C 9.1 °C 1019.7 hPa NE 6.9 km/h 9.3 km/h 69% 0.0 mm CLR
13:20 14.8 °C 8.9 °C 1019.5 hPa North 4.8 km/h 12.9 km/h 68% 0.0 mm CLR
13:25 14.8 °C 8.9 °C 1019.5 hPa NE 5.0 km/h 9.5 km/h 68% 0.0 mm CLR
13:30 14.8 °C 8.9 °C 1019.5 hPa NNE 8.0 km/h 12.9 km/h 68% 0.0 mm CLR
13:35 14.8 °C 9.2 °C 1019.3 hPa NE 8.0 km/h 12.9 km/h 69% 0.0 mm CLR
13:40 14.8 °C 8.9 °C 1019.3 hPa NE 8.0 km/h 11.3 km/h 68% 0.0 mm CLR
13:45 15.2 °C 9.1 °C 1019.3 hPa NNE 7.6 km/h 14.8 km/h 67% 0.0 mm CLR
13:50 15.4 °C 9.2 °C 1019.0 hPa NE 8.0 km/h 25.7 km/h 66% 0.0 mm CLR
13:55 15.8 °C 8.8 °C 1019.0 hPa NE 8.0 km/h 20.9 km/h 63% 0.0 mm CLR
14:00 16.0 °C 8.5 °C 1019.0 hPa NE 11.3 km/h 22.5 km/h 61% 0.0 mm CLR
14:05 16.1 °C 8.8 °C 1018.7 hPa ENE 11.3 km/h 22.5 km/h 62% 0.0 mm CLR
14:10 16.1 °C 8.8 °C 1018.7 hPa North 13.0 km/h 20.4 km/h 62% 0.0 mm CLR
14:15 16.0 °C 8.9 °C 1018.7 hPa NNE 12.9 km/h 22.5 km/h 63% 0.0 mm CLR
14:20 15.9 °C 8.8 °C 1018.5 hPa NNE 14.5 km/h 24.1 km/h 63% 0.0 mm CLR
14:25 16.1 °C 9.0 °C 1018.5 hPa NE 14.5 km/h 16.1 km/h 63% 0.0 mm CLR
14:30 16.2 °C 8.9 °C 1018.5 hPa East 10.3 km/h 14.8 km/h 62% 0.0 mm CLR
14:35 16.1 °C 8.6 °C 1018.4 hPa NE 11.3 km/h 27.4 km/h 61% 0.0 mm CLR
14:40 15.8 °C 9.0 °C 1018.4 hPa NE 13.0 km/h 16.7 km/h 64% 0.0 mm CLR
14:45 15.9 °C 8.8 °C 1018.4 hPa NE 12.9 km/h 20.9 km/h 63% 0.0 mm CLR
14:50 16.1 °C 9.1 °C 1018.2 hPa NE 11.3 km/h 24.1 km/h 63% 0.0 mm CLR
14:55 16.2 °C 8.7 °C 1018.2 hPa NE 11.3 km/h 25.7 km/h 61% 0.0 mm CLR
15:00 16.1 °C 8.6 °C 1018.2 hPa NE 16.1 km/h 25.7 km/h 61% 0.0 mm CLR
15:05 16.2 °C 8.9 °C 1018.1 hPa NE 16.1 km/h 22.5 km/h 62% 0.0 mm CLR
15:10 16.2 °C 8.9 °C 1018.1 hPa NE 12.9 km/h 22.5 km/h 62% 0.0 mm CLR
15:15 16.3 °C 8.5 °C 1018.1 hPa NE 12.9 km/h 25.7 km/h 60% 0.0 mm CLR
15:19 16.1 °C 8.8 °C 1018.0 hPa NNW 13.7 km/h 22.2 km/h 62% 0.0 mm CLR
15:25 16.1 °C 8.8 °C 1018.0 hPa NE 13.7 km/h 22.2 km/h 62% 0.0 mm CLR
15:30 16.1 °C 8.3 °C 1018.0 hPa NE 14.5 km/h 27.4 km/h 60% 0.0 mm CLR
15:35 16.0 °C 8.7 °C 1017.9 hPa NE 14.0 km/h 22.2 km/h 62% 0.0 mm CLR
15:40 16.1 °C 8.3 °C 1017.9 hPa NE 14.5 km/h 27.4 km/h 60% 0.0 mm CLR
15:45 16.0 °C 8.4 °C 1017.9 hPa NE 14.5 km/h 24.1 km/h 61% 0.0 mm CLR
15:49 16.1 °C 8.3 °C 1017.8 hPa ENE 16.1 km/h 20.4 km/h 60% 0.0 mm CLR
15:55 16.1 °C 8.8 °C 1017.8 hPa NE 16.1 km/h 13.7 km/h 62% 0.0 mm CLR
16:00 16.3 °C 8.8 °C 1017.8 hPa NE 12.9 km/h 22.5 km/h 61% 0.0 mm CLR
16:05 16.2 °C 8.4 °C 1017.8 hPa NE 12.9 km/h 24.1 km/h 60% 0.0 mm CLR
16:10 16.1 °C 8.6 °C 1017.8 hPa NNE 11.9 km/h 18.5 km/h 61% 0.0 mm CLR
16:15 16.1 °C 8.8 °C 1017.8 hPa ENE 11.9 km/h 18.5 km/h 62% 0.0 mm CLR
16:20 15.9 °C 8.8 °C 1017.7 hPa NE 14.5 km/h 24.1 km/h 63% 0.0 mm CLR
16:25 15.9 °C 8.6 °C 1017.7 hPa NE 14.5 km/h 20.9 km/h 62% 0.0 mm CLR
16:29 15.8 °C 8.6 °C 1017.7 hPa NE 11.9 km/h 24.1 km/h 62% 0.0 mm CLR
16:35 15.8 °C 8.9 °C 1017.6 hPa NE 11.3 km/h 25.7 km/h 64% 0.0 mm CLR
16:40 15.6 °C 8.6 °C 1017.6 hPa NE 14.5 km/h 25.7 km/h 63% 0.0 mm CLR
16:45 15.4 °C 8.6 °C 1017.6 hPa NE 14.5 km/h 24.1 km/h 64% 0.0 mm CLR
16:50 15.4 °C 8.6 °C 1017.5 hPa NE 16.1 km/h 25.7 km/h 64% 0.0 mm CLR
16:54 15.4 °C 8.6 °C 1017.5 hPa NNW 16.4 km/h 20.4 km/h 64% 0.0 mm CLR
17:00 15.3 °C 8.6 °C 1017.5 hPa NE 14.5 km/h 25.7 km/h 64% 0.0 mm CLR
17:05 15.3 °C 8.7 °C 1017.5 hPa NE 14.5 km/h 25.7 km/h 65% 0.0 mm CLR
17:10 15.3 °C 9.0 °C 1017.5 hPa NE 11.3 km/h 24.1 km/h 66% 0.0 mm CLR
17:15 15.2 °C 9.1 °C 1017.5 hPa NE 11.3 km/h 25.7 km/h 67% 0.0 mm CLR
17:19 15.0 °C 8.9 °C 1017.4 hPa East 14.0 km/h 18.5 km/h 67% 0.0 mm CLR
17:25 14.9 °C 9.1 °C 1017.4 hPa East 14.0 km/h 14.8 km/h 68% 0.0 mm CLR
17:30 14.8 °C 9.0 °C 1017.4 hPa NE 12.9 km/h 20.9 km/h 68% 0.0 mm CLR
17:35 14.8 °C 8.9 °C 1017.4 hPa NE 12.9 km/h 22.5 km/h 68% 0.0 mm CLR
17:40 14.8 °C 8.9 °C 1017.4 hPa NE 12.9 km/h 22.5 km/h 68% 0.0 mm CLR
17:45 14.7 °C 9.1 °C 1017.4 hPa NE 13.0 km/h 24.1 km/h 69% 0.0 mm CLR
17:50 14.6 °C 9.2 °C 1017.5 hPa NNE 11.1 km/h 20.4 km/h 70% 0.0 mm CLR
17:55 14.4 °C 9.0 °C 1017.5 hPa NE 11.3 km/h 20.9 km/h 70% 0.0 mm CLR
18:00 14.4 °C 9.2 °C 1017.5 hPa NE 11.3 km/h 19.3 km/h 71% 0.0 mm CLR
18:05 14.3 °C 9.3 °C 1017.6 hPa ENE 11.9 km/h 22.2 km/h 72% 0.0 mm CLR
18:10 14.2 °C 9.2 °C 1017.6 hPa ENE 11.3 km/h 22.5 km/h 72% 0.0 mm CLR
18:15 14.1 °C 9.3 °C 1017.6 hPa ENE 11.3 km/h 16.1 km/h 73% 0.0 mm CLR
18:20 14.0 °C 9.2 °C 1017.8 hPa NNE 10.3 km/h 14.8 km/h 73% 0.0 mm CLR
18:25 13.9 °C 9.3 °C 1017.8 hPa ENE 10.3 km/h 13.0 km/h 74% 0.0 mm CLR
18:30 13.8 °C 9.2 °C 1017.8 hPa ENE 9.5 km/h 14.8 km/h 74% 0.0 mm CLR
18:35 13.8 °C 9.4 °C 1017.8 hPa NE 9.5 km/h 13.0 km/h 75% 0.0 mm CLR
18:40 13.7 °C 9.3 °C 1017.8 hPa NE 9.7 km/h 19.3 km/h 75% 0.0 mm CLR
18:45 13.6 °C 9.4 °C 1017.8 hPa ENE 8.7 km/h 13.0 km/h 76% 0.0 mm CLR
18:50 13.5 °C 9.3 °C 1018.0 hPa NE 11.1 km/h 11.1 km/h 76% 0.0 mm CLR
18:55 13.4 °C 9.3 °C 1018.0 hPa NE 11.3 km/h 11.3 km/h 76% 0.0 mm CLR
19:00 13.4 °C 9.4 °C 1018.0 hPa NE 8.0 km/h 16.1 km/h 77% 0.0 mm CLR
19:05 13.3 °C 9.3 °C 1018.1 hPa NE 8.0 km/h 16.1 km/h 77% 0.0 mm CLR
19:10 13.3 °C 9.6 °C 1018.1 hPa NE 9.7 km/h 12.9 km/h 78% 0.0 mm CLR
19:15 13.2 °C 9.4 °C 1018.1 hPa NE 8.7 km/h 11.1 km/h 78% 0.0 mm CLR
19:20 13.2 °C 9.6 °C 1018.3 hPa NE 7.6 km/h 11.1 km/h 79% 0.0 mm CLR
19:25 13.1 °C 9.6 °C 1018.3 hPa NE 7.6 km/h 9.3 km/h 79% 0.0 mm CLR
19:30 13.1 °C 9.6 °C 1018.3 hPa NE 6.9 km/h 7.4 km/h 79% 0.0 mm CLR
19:35 13.1 °C 9.6 °C 1018.4 hPa NE 8.0 km/h 9.7 km/h 79% 0.0 mm CLR
19:40 13.0 °C 9.4 °C 1018.4 hPa NE 3.2 km/h 9.7 km/h 79% 0.0 mm CLR
19:45 12.9 °C 9.6 °C 1018.4 hPa NNE 4.7 km/h 9.3 km/h 80% 0.0 mm CLR
19:50 12.9 °C 9.6 °C 1018.6 hPa NE 5.0 km/h 11.1 km/h 80% 0.0 mm CLR
19:55 12.9 °C 9.6 °C 1018.6 hPa NE 4.8 km/h 11.3 km/h 80% 0.0 mm CLR
20:00 12.8 °C 9.4 °C 1018.6 hPa NE 8.0 km/h 11.3 km/h 80% 0.0 mm CLR
20:05 12.7 °C 9.5 °C 1018.7 hPa NE 8.0 km/h 9.7 km/h 81% 0.0 mm CLR
20:10 12.7 °C 9.5 °C 1018.7 hPa NE 6.4 km/h 7.4 km/h 81% 0.0 mm CLR
20:15 12.6 °C 9.4 °C 1018.7 hPa NE 8.0 km/h 9.7 km/h 81% 0.0 mm CLR
20:20 12.6 °C 9.6 °C 1018.7 hPa NE 4.8 km/h 9.7 km/h 82% 0.0 mm CLR
20:25 12.4 °C 9.4 °C 1018.7 hPa NE 5.8 km/h 7.4 km/h 82% 0.0 mm CLR
20:30 12.4 °C 9.6 °C 1018.7 hPa NE 4.8 km/h 9.7 km/h 83% 0.0 mm CLR
20:35 12.3 °C 9.5 °C 1018.8 hPa NE 4.8 km/h 8.0 km/h 83% 0.0 mm CLR
20:40 12.3 °C 9.7 °C 1018.8 hPa NE 4.8 km/h 9.7 km/h 84% 0.0 mm CLR
20:45 12.3 °C 9.7 °C 1018.8 hPa NE 5.0 km/h 9.5 km/h 84% 0.0 mm CLR
20:50 12.2 °C 9.6 °C 1018.8 hPa NE 8.0 km/h 9.7 km/h 84% 0.0 mm CLR
20:55 12.2 °C 9.6 °C 1018.8 hPa NNE 6.4 km/h 7.4 km/h 84% 0.0 mm CLR
21:00 12.1 °C 9.5 °C 1018.8 hPa NNE 4.8 km/h 8.0 km/h 84% 0.0 mm CLR
21:05 11.9 °C 9.3 °C 1018.9 hPa NNE 4.8 km/h 8.0 km/h 84% 0.0 mm CLR
21:10 11.8 °C 9.3 °C 1018.9 hPa NNE 4.7 km/h 7.4 km/h 85% 0.0 mm CLR
21:15 11.8 °C 9.3 °C 1018.9 hPa NNE 4.7 km/h 3.7 km/h 85% 0.0 mm CLR
21:20 11.7 °C 9.4 °C 1019.0 hPa NNE 2.9 km/h 5.6 km/h 86% 0.0 mm CLR
21:25 11.7 °C 9.4 °C 1019.0 hPa NNE 3.2 km/h 3.2 km/h 86% 0.0 mm CLR
21:30 11.6 °C 9.3 °C 1019.0 hPa NNE 1.6 km/h 3.2 km/h 86% 0.0 mm CLR
21:35 11.6 °C 9.3 °C 1019.1 hPa NNE 1.6 km/h 8.0 km/h 86% 0.0 mm CLR
21:40 11.5 °C 9.2 °C 1019.1 hPa NNW 3.2 km/h 8.0 km/h 86% 0.0 mm CLR
21:45 11.5 °C 9.4 °C 1019.1 hPa NW 3.2 km/h 6.4 km/h 87% 0.0 mm CLR
21:50 11.4 °C 9.3 °C 1019.2 hPa NNW 3.2 km/h   87% 0.0 mm CLR
21:55 11.4 °C 9.3 °C 1019.2 hPa NNW 3.2 km/h 3.9 km/h 87% 0.0 mm CLR
22:00 11.4 °C 9.3 °C 1019.2 hPa NNW 1.6 km/h 8.0 km/h 87% 0.0 mm CLR
22:05 11.4 °C 9.5 °C 1019.3 hPa NNW 1.6 km/h 6.4 km/h 88% 0.0 mm CLR
22:10 11.4 °C 9.5 °C 1019.3 hPa NNW 3.2 km/h   88% 0.0 mm CLR
22:15 11.4 °C 9.5 °C 1019.3 hPa NNW 3.2 km/h 5.6 km/h 88% 0.0 mm CLR
22:20 11.3 °C 9.4 °C 1019.4 hPa WNW 2.3 km/h 7.4 km/h 88% 0.0 mm CLR
22:25 11.2 °C 9.3 °C 1019.4 hPa WNW 2.3 km/h 7.4 km/h 88% 0.0 mm CLR
22:30 11.2 °C 9.3 °C 1019.4 hPa WNW 3.2 km/h 8.0 km/h 88% 0.0 mm CLR
22:35 11.1 °C 9.2 °C 1019.5 hPa WNW 4.7 km/h 7.4 km/h 88% 0.0 mm CLR
22:40 11.1 °C 9.2 °C 1019.5 hPa WNW 3.2 km/h 8.0 km/h 88% 0.0 mm CLR
22:45 11.0 °C 9.1 °C 1019.5 hPa WNW 4.7 km/h 3.7 km/h 88% 0.0 mm CLR
22:50 10.9 °C 9.0 °C 1019.6 hPa WNW 2.3 km/h   88% 0.0 mm CLR
22:55 10.9 °C 8.8 °C 1019.6 hPa WNW 2.3 km/h 7.4 km/h 87% 0.0 mm CLR
23:00 10.8 °C 8.7 °C 1019.6 hPa WNW 3.2 km/h 4.8 km/h 87% 0.0 mm CLR
23:05 10.7 °C 8.6 °C 1019.5 hPa WNW 3.2 km/h 4.8 km/h 87% 0.0 mm CLR
23:10 10.6 °C 8.5 °C 1019.5 hPa WNW 3.2 km/h 8.0 km/h 87% 0.0 mm CLR
23:15 10.4 °C 8.3 °C 1019.5 hPa WNW 2.9 km/h   87% 0.0 mm CLR
23:20 10.4 °C 8.5 °C 1019.5 hPa WNW 2.9 km/h 5.6 km/h 88% 0.0 mm CLR
23:25 10.3 °C 8.2 °C 1019.5 hPa WNW 3.2 km/h 4.8 km/h 87% 0.0 mm CLR
23:30 10.3 °C 8.4 °C 1019.5 hPa WNW 1.6 km/h   88% 0.0 mm CLR
23:35 10.2 °C 8.3 °C 1019.5 hPa WNW 2.3 km/h   88% 0.0 mm CLR
23:40 10.1 °C 8.1 °C 1019.5 hPa Calm   7.4 km/h 87% 0.0 mm CLR
23:45 9.9 °C 8.0 °C 1019.5 hPa Calm   8.0 km/h 88% 0.0 mm CLR
23:50 9.8 °C 7.9 °C 1019.4 hPa West 4.7 km/h 3.7 km/h 88% 0.0 mm CLR
23:55 9.8 °C 8.1 °C 1019.4 hPa West 4.7 km/h   89% 0.0 mm CLR
Murcia-Puente Tocinos, España
Compliments of Weather Underground - 2.75 mb

La estación de MeteoMurcia.com, publica sus datos en los siguientes proyectos:

Weather Underground PWS IMURCIAP2 Meteoclimatic www.awekas.at

W3Counter
Web Analytics